Augusta, Georgia
Current Conditions -  °F | °C
As of 8:53 AM on Thursday 27 Nov 2014 (Local Time) from KDNL Reporting Station
Clear Clear  
Wind Chill: 40°   Ceiling: Unl
Heat Index: 47°   Visibility: 10mi
Dew Point: 30°   Wind: 16mph
Humidity: 52%   Direction: 290°WNW
Pressure: 30.16"   Gusts: 25mph
Location:  33.48°N, 81.97°W
Report Text: KDNL 271353Z AUTO 29014G22KT 10SM CLR 08/M01 A3016 RMK AO2 SLP212 T00831011
Loading
Personal Weather Stations






























Interactive Weather Map New forecast layout! Learn more

10-Day Weather Forecast

Advertisements
Track Severe Weather on mobile